Terminal Aerodrome Forecast
Issued by NWS

Home | Current Version | Previous Version | Text Only | Print | Product List | Glossary On
Versions: 1 2 3 4 5 6 7 8 9 10 11 12 13 14 15 16 17 18 19 20 21 22 23 24
000
FTUS42 KGSP 172000 AAB
TAFAND
TAF AMD
KAND 172047Z 1721/1818 11006KT P6SM SCT035
     FM172300 06005KT P6SM FEW040
     FM180600 05004KT 6SM BR BKN020
     FM180900 02004KT 5SM BR BKN012
     FM181500 06005KT P6SM BKN025=

USA.gov is the U.S. government's official web portal to all federal, state and local government web resources and services.